createdAt,value
2017-03-31T00:00:42.240Z,959.99
2017-03-31T00:01:42.898Z,960.01
2017-03-31T00:02:44.996Z,959.99
2017-03-31T00:03:39.003Z,959.97
2017-03-31T00:04:41.915Z,959.97
2017-03-31T00:05:43.497Z,959.93
2017-03-31T00:06:45.548Z,959.96
2017-03-31T00:07:52.233Z,959.90
2017-03-31T00:08:43.345Z,959.93
2017-03-31T00:09:45.671Z,959.86
2017-03-31T00:10:45.164Z,959.83
2017-03-31T00:11:48.110Z,959.84
2017-03-31T00:12:49.996Z,959.84
2017-03-31T00:13:49.366Z,959.82
2017-03-31T00:14:49.634Z,959.77
2017-03-31T00:15:48.018Z,959.83
2017-03-31T00:16:43.639Z,959.81
2017-03-31T00:17:39.156Z,959.82
2017-03-31T00:18:43.676Z,959.79
2017-03-31T00:19:49.341Z,959.80
2017-03-31T00:20:48.336Z,959.81
2017-03-31T00:21:45.435Z,959.78
2017-03-31T00:22:39.610Z,959.76
2017-03-31T00:23:45.018Z,959.75
2017-03-31T00:24:44.937Z,959.78
2017-03-31T00:25:40.870Z,959.74
2017-03-31T00:26:43.517Z,959.71
2017-03-31T00:27:46.407Z,959.73
2017-03-31T00:28:47.007Z,959.72
2017-03-31T00:29:54.084Z,959.66
2017-03-31T00:30:43.692Z,959.70
2017-03-31T00:31:45.104Z,959.68
2017-03-31T00:32:49.538Z,959.66
2017-03-31T00:33:46.857Z,959.70
2017-03-31T00:34:45.357Z,959.69
2017-03-31T00:35:48.349Z,959.66
2017-03-31T00:36:43.599Z,959.68
2017-03-31T00:37:43.460Z,959.67
2017-03-31T00:38:44.559Z,959.68
2017-03-31T00:39:44.840Z,959.63
2017-03-31T00:40:49.817Z,959.67
2017-03-31T00:41:39.077Z,959.64
2017-03-31T00:42:44.093Z,959.64
2017-03-31T00:43:48.180Z,959.61
2017-03-31T00:44:49.427Z,959.59
2017-03-31T00:45:39.107Z,959.57
2017-03-31T00:46:47.109Z,959.57
2017-03-31T00:47:45.420Z,959.56
2017-03-31T00:48:43.407Z,959.56
2017-03-31T00:49:55.459Z,959.54
2017-03-31T00:50:39.121Z,959.55
2017-03-31T00:51:48.886Z,959.55
2017-03-31T00:52:54.701Z,959.51
2017-03-31T00:53:48.343Z,959.50
2017-03-31T00:54:44.795Z,959.48
2017-03-31T00:55:42.052Z,959.48
2017-03-31T00:56:40.797Z,959.49
2017-03-31T00:57:44.871Z,959.48
2017-03-31T00:58:48.550Z,959.50
2017-03-31T00:59:37.203Z,959.50
2017-03-31T01:00:48.787Z,959.45
2017-03-31T01:02:03.444Z,959.43
2017-03-31T01:02:56.595Z,959.41
2017-03-31T01:03:49.386Z,959.41
2017-03-31T01:04:48.451Z,959.40
2017-03-31T01:05:58.807Z,959.37
2017-03-31T01:06:51.601Z,959.38
2017-03-31T01:07:50.748Z,959.35
2017-03-31T01:08:53.512Z,959.35
2017-03-31T01:09:44.784Z,959.38
2017-03-31T01:10:48.100Z,959.38
2017-03-31T01:11:59.370Z,959.36
2017-03-31T01:12:47.779Z,959.37
2017-03-31T01:13:43.924Z,959.33
2017-03-31T01:14:57.840Z,959.29
2017-03-31T01:15:47.940Z,959.32
2017-03-31T01:16:53.548Z,959.35
2017-03-31T01:17:45.191Z,959.31
2017-03-31T01:18:49.652Z,959.36
2017-03-31T01:19:45.144Z,959.31
2017-03-31T01:20:49.398Z,959.34
2017-03-31T01:21:48.673Z,959.35
2017-03-31T01:22:53.979Z,959.37
2017-03-31T01:23:49.275Z,959.34
2017-03-31T01:24:43.148Z,959.32
2017-03-31T01:25:47.635Z,959.33
2017-03-31T01:26:53.459Z,959.30
2017-03-31T01:27:53.443Z,959.30
2017-03-31T01:28:54.387Z,959.32
2017-03-31T01:29:43.400Z,959.29
2017-03-31T01:30:40.756Z,959.26
2017-03-31T01:31:49.648Z,959.30
2017-03-31T01:32:45.008Z,959.33
2017-03-31T01:33:39.788Z,959.29
2017-03-31T01:34:54.055Z,959.26
2017-03-31T01:35:48.126Z,959.27
2017-03-31T01:36:39.962Z,959.26
2017-03-31T01:37:45.990Z,959.26
2017-03-31T01:38:37.037Z,959.28
2017-03-31T01:39:43.538Z,959.25
2017-03-31T01:40:40.572Z,959.26
2017-03-31T01:41:44.766Z,959.23
2017-03-31T01:42:43.958Z,959.23
2017-03-31T01:43:59.337Z,959.21
2017-03-31T01:44:59.784Z,959.24
2017-03-31T01:45:53.777Z,959.22
2017-03-31T01:46:53.487Z,959.23
2017-03-31T01:47:42.477Z,959.19
2017-03-31T01:48:48.674Z,959.22
2017-03-31T01:49:48.547Z,959.26
2017-03-31T01:50:40.650Z,959.17
2017-03-31T01:51:56.583Z,959.15
2017-03-31T01:52:48.266Z,959.19
2017-03-31T01:53:49.551Z,959.16
2017-03-31T01:54:50.419Z,959.13
2017-03-31T01:55:49.719Z,959.13
2017-03-31T01:56:45.104Z,959.14
2017-03-31T01:58:02.001Z,959.13
2017-03-31T01:58:52.075Z,959.09
2017-03-31T01:59:53.689Z,959.07
2017-03-31T02:00:49.742Z,959.09
2017-03-31T02:01:49.013Z,959.05
2017-03-31T02:02:47.207Z,959.08
2017-03-31T02:04:00.572Z,959.04
2017-03-31T02:04:54.493Z,959.06
2017-03-31T02:05:49.252Z,959.07
2017-03-31T02:06:49.211Z,959.09
2017-03-31T02:07:43.782Z,959.07
2017-03-31T02:08:43.981Z,959.07
2017-03-31T02:09:56.132Z,959.11
2017-03-31T02:10:50.067Z,959.12
2017-03-31T02:11:48.928Z,959.08
2017-03-31T02:12:40.710Z,959.08
2017-03-31T02:13:56.258Z,959.11
2017-03-31T02:14:49.933Z,959.10
2017-03-31T02:15:48.734Z,959.08
2017-03-31T02:16:50.647Z,959.06
2017-03-31T02:17:49.774Z,959.03
2017-03-31T02:18:48.207Z,959.05
2017-03-31T02:19:47.092Z,959.03
2017-03-31T02:20:58.078Z,959.00
2017-03-31T02:21:42.518Z,959.02
2017-03-31T02:22:56.352Z,959.01
2017-03-31T02:23:53.934Z,958.96
2017-03-31T02:24:48.156Z,958.98
2017-03-31T02:25:48.595Z,958.95
2017-03-31T02:26:53.957Z,958.92
2017-03-31T02:28:03.863Z,958.87
2017-03-31T02:29:25.303Z,958.88
2017-03-31T02:30:03.605Z,958.87
2017-03-31T02:30:46.823Z,958.81
2017-03-31T02:31:48.480Z,958.84
2017-03-31T02:32:49.494Z,958.79
2017-03-31T02:33:51.084Z,958.79
2017-03-31T02:34:47.891Z,958.78
2017-03-31T02:35:48.934Z,958.77
2017-03-31T02:36:48.964Z,958.78
2017-03-31T02:37:54.668Z,958.76
2017-03-31T02:38:54.395Z,958.76
2017-03-31T02:39:48.584Z,958.79
2017-03-31T02:40:44.394Z,958.72
2017-03-31T02:41:48.287Z,958.73
2017-03-31T02:42:39.439Z,958.76
2017-03-31T02:43:54.209Z,958.70
2017-03-31T02:44:39.204Z,958.71
2017-03-31T02:45:49.598Z,958.72
2017-03-31T02:46:53.928Z,958.71
2017-03-31T02:47:45.260Z,958.70
2017-03-31T02:48:53.287Z,958.66
2017-03-31T02:49:46.960Z,958.71
2017-03-31T02:51:14.559Z,958.68
2017-03-31T02:51:57.902Z,958.71
2017-03-31T02:52:44.000Z,958.68
2017-03-31T02:53:46.357Z,958.68
2017-03-31T02:54:45.193Z,958.64
2017-03-31T02:55:53.537Z,958.68
2017-03-31T02:56:47.863Z,958.68
2017-03-31T02:57:49.206Z,958.68
2017-03-31T02:58:48.192Z,958.66
2017-03-31T02:59:45.152Z,958.66
2017-03-31T03:00:44.704Z,958.65
2017-03-31T03:01:48.974Z,958.64
2017-03-31T03:02:48.586Z,958.62
2017-03-31T03:03:40.487Z,958.62
2017-03-31T03:04:47.536Z,958.65
2017-03-31T03:05:43.628Z,958.66
2017-03-31T03:06:48.034Z,958.64
2017-03-31T03:07:47.507Z,958.63
2017-03-31T03:08:39.194Z,958.61
2017-03-31T03:09:48.859Z,958.62
2017-03-31T03:10:39.165Z,958.58
2017-03-31T03:11:45.304Z,958.54
2017-03-31T03:12:44.056Z,958.54
2017-03-31T03:13:48.861Z,958.57
2017-03-31T03:14:46.265Z,958.55
2017-03-31T03:15:54.019Z,958.58
2017-03-31T03:16:48.647Z,958.54
2017-03-31T03:17:45.656Z,958.55
2017-03-31T03:18:50.109Z,958.52
2017-03-31T03:19:48.643Z,958.51
2017-03-31T03:20:45.107Z,958.53
2017-03-31T03:21:48.775Z,958.52
2017-03-31T03:22:44.114Z,958.49
2017-03-31T03:23:33.708Z,958.51
2017-03-31T03:24:43.238Z,958.49
2017-03-31T03:25:43.057Z,958.49
2017-03-31T03:26:54.830Z,958.52
2017-03-31T03:27:49.176Z,958.50
2017-03-31T03:28:45.141Z,958.51
2017-03-31T03:29:48.527Z,958.48
2017-03-31T03:30:45.043Z,958.49
2017-03-31T03:31:50.072Z,958.46
2017-03-31T03:32:50.350Z,958.49
2017-03-31T03:33:43.377Z,958.45
2017-03-31T03:34:49.053Z,958.49
2017-03-31T03:35:48.931Z,958.50
2017-03-31T03:36:42.585Z,958.44
2017-03-31T03:37:39.797Z,958.42
2017-03-31T03:38:43.273Z,958.43
2017-03-31T03:39:40.918Z,958.39
2017-03-31T03:40:50.156Z,958.38
2017-03-31T03:41:43.526Z,958.36
2017-03-31T03:43:02.318Z,958.36
2017-03-31T03:43:50.007Z,958.34
2017-03-31T03:44:45.984Z,958.30
2017-03-31T03:45:49.764Z,958.30
2017-03-31T03:46:48.199Z,958.32
2017-03-31T03:47:48.817Z,958.31
2017-03-31T03:48:40.704Z,958.29
2017-03-31T03:49:55.591Z,958.30
2017-03-31T03:50:49.368Z,958.31
2017-03-31T03:51:43.908Z,958.31
2017-03-31T03:52:54.919Z,958.30
2017-03-31T03:53:44.494Z,958.30
2017-03-31T03:54:49.006Z,958.29
2017-03-31T03:55:54.988Z,958.29
2017-03-31T03:56:45.316Z,958.29
2017-03-31T03:57:51.061Z,958.31
2017-03-31T03:58:41.014Z,958.31
2017-03-31T03:59:43.647Z,958.29
2017-03-31T04:00:49.006Z,958.28
2017-03-31T04:01:43.176Z,958.28
2017-03-31T04:02:45.066Z,958.35
2017-03-31T04:03:40.941Z,958.27
2017-03-31T04:04:49.336Z,958.29
2017-03-31T04:05:49.806Z,958.32
2017-03-31T04:06:45.085Z,958.28
2017-03-31T04:07:48.505Z,958.29
2017-03-31T04:08:32.869Z,958.33
2017-03-31T04:09:48.729Z,958.30
2017-03-31T04:10:45.367Z,958.29
2017-03-31T04:11:40.362Z,958.26
2017-03-31T04:12:49.275Z,958.30
2017-03-31T04:13:43.495Z,958.27
2017-03-31T04:14:49.536Z,958.28
2017-03-31T04:15:39.910Z,958.25
2017-03-31T04:16:43.080Z,958.26
2017-03-31T04:17:49.565Z,958.24
2017-03-31T04:18:54.870Z,958.19
2017-03-31T04:19:43.528Z,958.22
2017-03-31T04:21:04.084Z,958.17
2017-03-31T04:21:48.245Z,958.20
2017-03-31T04:22:50.793Z,958.16
2017-03-31T04:23:39.297Z,958.20
2017-03-31T04:24:44.891Z,958.23
2017-03-31T04:26:43.670Z,958.21
2017-03-31T04:27:43.195Z,958.18
2017-03-31T04:28:42.232Z,958.20
2017-03-31T04:29:47.767Z,958.21
2017-03-31T04:30:45.210Z,958.19
2017-03-31T04:31:44.315Z,958.18
2017-03-31T04:32:45.217Z,958.20
2017-03-31T04:33:48.486Z,958.21
2017-03-31T04:34:53.116Z,958.21
2017-03-31T04:35:47.537Z,958.20
2017-03-31T04:36:45.074Z,958.20
2017-03-31T04:37:45.028Z,958.12
2017-03-31T04:38:43.846Z,958.12
2017-03-31T04:39:49.188Z,958.12
2017-03-31T04:40:39.221Z,958.18
2017-03-31T04:41:44.100Z,958.17
2017-03-31T04:42:45.246Z,958.12
2017-03-31T04:43:35.613Z,958.11
2017-03-31T04:44:54.767Z,958.14
2017-03-31T04:45:42.855Z,958.15
2017-03-31T04:46:41.465Z,958.14
2017-03-31T04:47:45.014Z,958.11
2017-03-31T04:48:49.845Z,958.12
2017-03-31T04:49:54.496Z,958.09
2017-03-31T04:50:43.426Z,958.09
2017-03-31T04:51:39.604Z,958.09
2017-03-31T04:52:43.600Z,958.10
2017-03-31T04:53:45.444Z,958.08
2017-03-31T04:54:51.013Z,958.09
2017-03-31T04:55:55.547Z,958.05
2017-03-31T04:56:45.327Z,958.07
2017-03-31T04:57:47.913Z,958.07
2017-03-31T04:58:44.089Z,958.10
2017-03-31T05:00:03.414Z,958.09
2017-03-31T05:00:47.274Z,958.09
2017-03-31T05:01:44.346Z,958.06
2017-03-31T05:02:40.136Z,958.10
2017-03-31T05:03:39.029Z,958.09
2017-03-31T05:04:50.080Z,958.08
2017-03-31T05:05:42.247Z,958.10
2017-03-31T05:06:42.146Z,958.11
2017-03-31T05:07:49.374Z,958.14
2017-03-31T05:08:48.865Z,958.17
2017-03-31T05:09:40.726Z,958.17
2017-03-31T05:10:45.380Z,958.21
2017-03-31T05:11:43.809Z,958.21
2017-03-31T05:12:43.426Z,958.23
2017-03-31T05:13:42.099Z,958.22
2017-03-31T05:14:50.445Z,958.23
2017-03-31T05:15:40.551Z,958.25
2017-03-31T05:16:44.094Z,958.20
2017-03-31T05:17:42.284Z,958.22
2017-03-31T05:18:42.236Z,958.24
2017-03-31T05:19:45.213Z,958.24
2017-03-31T05:20:40.230Z,958.27
2017-03-31T05:21:43.475Z,958.25
2017-03-31T05:22:44.095Z,958.25
2017-03-31T05:23:43.341Z,958.24
2017-03-31T05:24:43.911Z,958.27
2017-03-31T05:25:48.556Z,958.26
2017-03-31T05:26:40.539Z,958.22
2017-03-31T05:27:44.087Z,958.23
2017-03-31T05:28:56.321Z,958.25
2017-03-31T05:29:45.490Z,958.24
2017-03-31T05:30:39.884Z,958.20
2017-03-31T05:31:45.211Z,958.18
2017-03-31T05:32:46.708Z,958.21
2017-03-31T05:33:44.107Z,958.28
2017-03-31T05:34:39.607Z,958.23
2017-03-31T05:35:44.142Z,958.24
2017-03-31T05:36:45.478Z,958.24
2017-03-31T05:37:47.221Z,958.20
2017-03-31T05:38:50.208Z,958.21
2017-03-31T05:39:42.737Z,958.19
2017-03-31T05:40:40.258Z,958.22
2017-03-31T05:41:44.122Z,958.22
2017-03-31T05:42:45.223Z,958.19
2017-03-31T05:43:43.092Z,958.19
2017-03-31T05:44:37.204Z,958.20
2017-03-31T05:45:43.921Z,958.16
2017-03-31T05:46:43.620Z,958.15
2017-03-31T05:47:44.204Z,958.19
2017-03-31T05:48:44.633Z,958.21
2017-03-31T05:49:48.644Z,958.16
2017-03-31T05:50:48.598Z,958.16
2017-03-31T05:51:45.189Z,958.23
2017-03-31T05:52:45.700Z,958.19
2017-03-31T05:53:45.898Z,958.17
2017-03-31T05:54:43.372Z,958.18
2017-03-31T05:55:43.752Z,958.16
2017-03-31T05:56:45.883Z,958.17
2017-03-31T05:57:37.595Z,958.16
2017-03-31T05:58:49.427Z,958.15
2017-03-31T05:59:49.355Z,958.16
2017-03-31T06:00:40.251Z,958.14
2017-03-31T06:01:45.054Z,958.12
2017-03-31T06:02:43.162Z,958.09
2017-03-31T06:03:45.040Z,958.12
2017-03-31T06:04:49.838Z,958.11
2017-03-31T06:05:50.270Z,958.10
2017-03-31T06:06:44.238Z,958.10
2017-03-31T06:07:48.391Z,958.13
2017-03-31T06:08:44.028Z,958.16
2017-03-31T06:09:39.644Z,958.13
2017-03-31T06:10:47.927Z,958.13
2017-03-31T06:11:54.412Z,958.12
2017-03-31T06:12:44.127Z,958.12
2017-03-31T06:13:49.237Z,958.08
2017-03-31T06:14:44.875Z,958.11
2017-03-31T06:15:45.581Z,958.06
2017-03-31T06:16:43.493Z,958.09
2017-03-31T06:17:39.527Z,958.10
2017-03-31T06:18:38.201Z,958.08
2017-03-31T06:19:39.053Z,958.08
2017-03-31T06:20:49.381Z,958.09
2017-03-31T06:21:45.374Z,958.09
2017-03-31T06:22:49.158Z,958.08
2017-03-31T06:23:42.683Z,958.08
2017-03-31T06:24:51.139Z,958.09
2017-03-31T06:25:44.177Z,958.03
2017-03-31T06:26:43.055Z,958.05
2017-03-31T06:27:43.996Z,958.05
2017-03-31T06:28:50.038Z,958.05
2017-03-31T06:29:39.184Z,958.01
2017-03-31T06:30:39.778Z,958.07
2017-03-31T06:31:51.369Z,958.03
2017-03-31T06:32:55.766Z,958.01
2017-03-31T06:33:45.294Z,957.99
2017-03-31T06:34:45.572Z,958.00
2017-03-31T06:35:44.830Z,958.02
2017-03-31T06:36:50.397Z,958.00
2017-03-31T06:37:39.444Z,958.01
2017-03-31T06:38:45.036Z,958.01
2017-03-31T06:39:43.479Z,958.00
2017-03-31T06:40:49.249Z,958.01
2017-03-31T06:41:43.444Z,957.99
2017-03-31T06:42:48.289Z,957.99
2017-03-31T06:43:43.744Z,957.97
2017-03-31T06:44:49.080Z,957.97
2017-03-31T06:45:45.623Z,957.95
2017-03-31T06:46:43.075Z,958.02
2017-03-31T06:47:45.862Z,957.98
2017-03-31T06:48:45.380Z,958.00
2017-03-31T06:49:43.254Z,957.95
2017-03-31T06:50:49.291Z,957.96
2017-03-31T06:51:43.494Z,957.92
2017-03-31T06:52:49.618Z,957.94
2017-03-31T06:53:48.358Z,957.94
2017-03-31T06:54:39.706Z,957.91
2017-03-31T06:55:53.723Z,957.92
2017-03-31T06:56:43.850Z,957.91
2017-03-31T06:57:45.201Z,957.87
2017-03-31T06:58:44.573Z,957.91
2017-03-31T06:59:44.978Z,957.88
2017-03-31T07:00:43.406Z,957.89
2017-03-31T07:01:42.876Z,957.89
2017-03-31T07:02:54.755Z,957.87
2017-03-31T07:03:43.585Z,957.86
2017-03-31T07:04:43.616Z,957.84
2017-03-31T07:05:43.483Z,957.87
2017-03-31T07:06:37.520Z,957.89
2017-03-31T07:07:42.285Z,957.86
2017-03-31T07:08:49.216Z,957.84
2017-03-31T07:09:40.090Z,957.84
2017-03-31T07:10:40.872Z,957.88
2017-03-31T07:11:50.667Z,957.86
2017-03-31T07:12:49.919Z,957.89
2017-03-31T07:13:45.220Z,957.88
2017-03-31T07:14:49.693Z,957.86
2017-03-31T07:15:47.789Z,957.90
2017-03-31T07:16:46.810Z,957.90
2017-03-31T07:17:54.883Z,957.92
2017-03-31T07:18:39.285Z,957.91
2017-03-31T07:19:40.383Z,957.94
2017-03-31T07:20:44.830Z,957.88
2017-03-31T07:21:41.255Z,957.88
2017-03-31T07:22:43.849Z,957.91
2017-03-31T07:23:45.166Z,957.91
2017-03-31T07:24:39.415Z,957.85
2017-03-31T07:25:47.867Z,957.89
2017-03-31T07:26:39.779Z,957.88
2017-03-31T07:27:43.789Z,957.88
2017-03-31T07:28:50.329Z,957.86
2017-03-31T07:29:39.593Z,957.88
2017-03-31T07:30:43.512Z,957.90
2017-03-31T07:31:48.764Z,957.89
2017-03-31T07:32:44.169Z,957.86
2017-03-31T07:33:43.318Z,957.86
2017-03-31T07:34:49.840Z,957.85
2017-03-31T07:35:40.736Z,957.84
2017-03-31T07:36:48.236Z,957.82
2017-03-31T07:37:44.196Z,957.82
2017-03-31T07:38:51.385Z,957.80
2017-03-31T07:39:38.165Z,957.83
2017-03-31T07:40:50.100Z,957.79
2017-03-31T07:41:44.622Z,957.84
2017-03-31T07:42:42.875Z,957.83
2017-03-31T07:43:39.791Z,957.79
2017-03-31T07:44:50.020Z,957.79
2017-03-31T07:45:43.882Z,957.81
2017-03-31T07:46:43.388Z,957.80
2017-03-31T07:47:55.382Z,957.79
2017-03-31T07:48:45.079Z,957.80
2017-03-31T07:49:44.133Z,957.79
2017-03-31T07:50:33.812Z,957.80
2017-03-31T07:51:38.522Z,957.83
2017-03-31T07:52:45.048Z,957.82
2017-03-31T07:53:45.793Z,957.75
2017-03-31T07:54:42.653Z,957.77
2017-03-31T07:55:49.349Z,957.77
2017-03-31T07:56:46.929Z,957.75
2017-03-31T07:57:37.920Z,957.73
2017-03-31T07:58:45.343Z,957.75
2017-03-31T07:59:39.309Z,957.75
2017-03-31T08:00:45.004Z,957.73
2017-03-31T08:01:40.905Z,957.78
2017-03-31T08:02:43.531Z,957.78
2017-03-31T08:03:51.640Z,957.75
2017-03-31T08:04:43.195Z,957.79
2017-03-31T08:05:44.927Z,957.76
2017-03-31T08:06:49.652Z,957.74
2017-03-31T08:07:48.736Z,957.72
2017-03-31T08:08:44.923Z,957.76
2017-03-31T08:09:39.038Z,957.75
2017-03-31T08:10:49.726Z,957.75
2017-03-31T08:11:40.419Z,957.78
2017-03-31T08:12:42.662Z,957.78
2017-03-31T08:13:46.482Z,957.75
2017-03-31T08:14:43.210Z,957.75
2017-03-31T08:15:45.249Z,957.77
2017-03-31T08:16:40.548Z,957.77
2017-03-31T08:17:36.853Z,957.71
2017-03-31T08:18:48.727Z,957.70
2017-03-31T08:19:43.410Z,957.76
2017-03-31T08:20:48.658Z,957.72
2017-03-31T08:21:50.161Z,957.74
2017-03-31T08:22:39.486Z,957.76
2017-03-31T08:23:38.216Z,957.72
2017-03-31T08:24:50.017Z,957.77
2017-03-31T08:25:45.386Z,957.72
2017-03-31T08:26:50.328Z,957.72
2017-03-31T08:27:49.967Z,957.73
2017-03-31T08:28:41.013Z,957.71
2017-03-31T08:29:42.312Z,957.73
2017-03-31T08:30:44.051Z,957.74
2017-03-31T08:31:43.270Z,957.69
2017-03-31T08:32:47.287Z,957.66
2017-03-31T08:33:50.172Z,957.69
2017-03-31T08:34:39.315Z,957.67
2017-03-31T08:35:43.508Z,957.68
2017-03-31T08:36:45.687Z,957.68
2017-03-31T08:37:43.402Z,957.66
2017-03-31T08:38:45.048Z,957.68
2017-03-31T08:39:40.578Z,957.68
2017-03-31T08:40:43.185Z,957.71
2017-03-31T08:41:49.097Z,957.73
2017-03-31T08:42:54.406Z,957.69
2017-03-31T08:43:49.537Z,957.70
2017-03-31T08:44:45.119Z,957.70
2017-03-31T08:45:43.398Z,957.67
2017-03-31T08:46:40.167Z,957.66
2017-03-31T08:47:44.084Z,957.67
2017-03-31T08:48:45.041Z,957.66
2017-03-31T08:49:43.030Z,957.66
2017-03-31T08:50:40.144Z,957.67
2017-03-31T08:51:44.284Z,957.65
2017-03-31T08:52:40.884Z,957.63
2017-03-31T08:53:44.030Z,957.65
2017-03-31T08:54:49.396Z,957.65
2017-03-31T08:55:48.961Z,957.65
2017-03-31T08:56:44.147Z,957.69
2017-03-31T08:57:40.568Z,957.66
2017-03-31T08:58:43.009Z,957.65
2017-03-31T08:59:40.369Z,957.66
2017-03-31T09:00:49.395Z,957.66
2017-03-31T09:01:48.607Z,957.61
2017-03-31T09:02:45.360Z,957.63
2017-03-31T09:03:37.984Z,957.63
2017-03-31T09:04:44.815Z,957.60
2017-03-31T09:05:43.497Z,957.57
2017-03-31T09:06:53.540Z,957.55
2017-03-31T09:07:51.009Z,957.51
2017-03-31T09:08:43.302Z,957.53
2017-03-31T09:09:43.480Z,957.53
2017-03-31T09:10:49.978Z,957.53
2017-03-31T09:11:44.663Z,957.52
2017-03-31T09:12:54.094Z,957.51
2017-03-31T09:13:44.189Z,957.52
2017-03-31T09:14:45.285Z,957.49
2017-03-31T09:15:43.517Z,957.51
2017-03-31T09:16:39.123Z,957.49
2017-03-31T09:17:39.919Z,957.47
2017-03-31T09:18:48.873Z,957.48
2017-03-31T09:19:55.367Z,957.47
2017-03-31T09:20:49.785Z,957.47
2017-03-31T09:21:44.960Z,957.44
2017-03-31T09:22:46.353Z,957.46
2017-03-31T09:23:53.483Z,957.52
2017-03-31T09:24:49.122Z,957.43
2017-03-31T09:25:45.120Z,957.39
2017-03-31T09:26:44.800Z,957.42
2017-03-31T09:27:47.523Z,957.42
2017-03-31T09:28:47.403Z,957.38
2017-03-31T09:29:43.769Z,957.38
2017-03-31T09:30:47.836Z,957.39
2017-03-31T09:31:46.436Z,957.33
2017-03-31T09:32:43.403Z,957.38
2017-03-31T09:33:49.234Z,957.34
2017-03-31T09:34:41.233Z,957.32
2017-03-31T09:35:41.910Z,957.29
2017-03-31T09:36:49.546Z,957.30
2017-03-31T09:37:45.388Z,957.27
2017-03-31T09:38:43.979Z,957.27
2017-03-31T09:39:44.103Z,957.28
2017-03-31T09:40:39.227Z,957.23
2017-03-31T09:41:37.670Z,957.25
2017-03-31T09:42:51.319Z,957.25
2017-03-31T09:43:45.847Z,957.23
2017-03-31T09:44:49.280Z,957.21
2017-03-31T09:46:02.637Z,957.27
2017-03-31T09:46:46.341Z,957.24
2017-03-31T09:47:38.024Z,957.18
2017-03-31T09:48:44.127Z,957.24
2017-03-31T09:49:44.997Z,957.24
2017-03-31T09:50:42.903Z,957.20
2017-03-31T09:51:40.243Z,957.23
2017-03-31T09:52:48.991Z,957.16
2017-03-31T09:53:49.787Z,957.18
2017-03-31T09:54:41.196Z,957.15
2017-03-31T09:55:48.290Z,957.16
2017-03-31T09:56:53.547Z,957.17
2017-03-31T09:57:43.559Z,957.15
2017-03-31T09:58:46.848Z,957.14
2017-03-31T09:59:47.542Z,957.14
2017-03-31T10:00:43.495Z,957.07
2017-03-31T10:01:49.265Z,957.07
2017-03-31T10:02:42.923Z,957.07
2017-03-31T10:03:44.067Z,957.05
2017-03-31T10:04:39.897Z,957.06
2017-03-31T10:05:41.280Z,957.03
2017-03-31T10:06:39.773Z,957.01
2017-03-31T10:07:59.234Z,957.06
2017-03-31T10:08:43.501Z,956.97
2017-03-31T10:10:04.926Z,956.99
2017-03-31T10:10:48.821Z,957.01
2017-03-31T10:11:53.375Z,956.97
2017-03-31T10:12:43.498Z,957.02
2017-03-31T10:13:47.994Z,956.97
2017-03-31T10:14:47.147Z,956.99
2017-03-31T10:15:47.900Z,956.99
2017-03-31T10:16:40.638Z,956.99
2017-03-31T10:17:45.032Z,956.95
2017-03-31T10:18:43.265Z,956.91
2017-03-31T10:19:50.579Z,956.92
2017-03-31T10:20:44.868Z,956.88
2017-03-31T10:21:55.739Z,956.93
2017-03-31T10:22:44.344Z,956.88
2017-03-31T10:23:44.760Z,956.85
2017-03-31T10:24:48.701Z,956.87
2017-03-31T10:25:50.397Z,956.87
2017-03-31T10:26:50.184Z,956.87
2017-03-31T10:27:43.487Z,956.89
2017-03-31T10:28:34.154Z,956.87
2017-03-31T10:29:43.562Z,956.85
2017-03-31T10:30:43.733Z,956.87
2017-03-31T10:31:53.584Z,956.87
2017-03-31T10:32:43.865Z,956.81
2017-03-31T10:33:43.535Z,956.80
2017-03-31T10:34:49.112Z,956.83
2017-03-31T10:35:43.352Z,956.85
2017-03-31T10:36:41.951Z,956.81
2017-03-31T10:37:46.165Z,956.82
2017-03-31T10:38:44.115Z,956.76
2017-03-31T10:39:49.397Z,956.76
2017-03-31T10:40:51.583Z,956.76
2017-03-31T10:41:48.616Z,956.73
2017-03-31T10:42:40.536Z,956.70
2017-03-31T10:43:43.076Z,956.72
2017-03-31T10:44:49.341Z,956.70
2017-03-31T10:45:53.522Z,956.69
2017-03-31T10:46:40.495Z,956.67
2017-03-31T10:47:47.948Z,956.70
2017-03-31T10:48:44.046Z,956.63
2017-03-31T10:49:51.395Z,956.64
2017-03-31T10:50:54.702Z,956.63
2017-03-31T10:51:44.214Z,956.62
2017-03-31T10:52:49.084Z,956.60
2017-03-31T10:53:41.918Z,956.56
2017-03-31T10:54:44.888Z,956.56
2017-03-31T10:55:44.269Z,956.51
2017-03-31T10:56:39.666Z,956.53
2017-03-31T10:57:35.384Z,956.52
2017-03-31T10:58:41.230Z,956.47
2017-03-31T10:59:47.805Z,956.46
2017-03-31T11:00:45.094Z,956.45
2017-03-31T11:01:45.990Z,956.41
2017-03-31T11:02:46.097Z,956.45
2017-03-31T11:03:53.180Z,956.39
2017-03-31T11:04:42.665Z,956.36
2017-03-31T11:05:39.439Z,956.35
2017-03-31T11:06:54.015Z,956.36
2017-03-31T11:07:44.927Z,956.35
2017-03-31T11:08:43.635Z,956.32
2017-03-31T11:09:40.646Z,956.33
2017-03-31T11:10:45.242Z,956.31
2017-03-31T11:11:40.048Z,956.33
2017-03-31T11:12:40.704Z,956.32
2017-03-31T11:13:33.534Z,956.31
2017-03-31T11:14:45.239Z,956.29
2017-03-31T11:15:43.522Z,956.30
2017-03-31T11:16:38.892Z,956.29
2017-03-31T11:17:24.032Z,956.27
2017-03-31T11:18:12.930Z,956.23
2017-03-31T11:19:42.617Z,956.25
2017-03-31T11:20:45.786Z,956.20
2017-03-31T11:21:43.015Z,956.18
2017-03-31T11:22:49.520Z,956.21
2017-03-31T11:23:45.120Z,956.19
2017-03-31T11:24:45.993Z,956.17
2017-03-31T11:25:43.643Z,956.15
2017-03-31T11:26:37.893Z,956.11
2017-03-31T11:27:39.105Z,956.14
2017-03-31T11:28:49.196Z,956.07
2017-03-31T11:29:44.674Z,956.11
2017-03-31T11:30:43.746Z,956.10
2017-03-31T11:31:59.186Z,956.13
2017-03-31T11:32:42.807Z,956.07
2017-03-31T11:33:44.685Z,956.02
2017-03-31T11:34:50.131Z,956.02
2017-03-31T11:35:40.975Z,956.03
2017-03-31T11:36:50.262Z,956.02
2017-03-31T11:37:43.988Z,956.05
2017-03-31T11:38:39.441Z,956.04
2017-03-31T11:39:44.918Z,956.01
2017-03-31T11:40:44.996Z,955.97
2017-03-31T11:41:39.117Z,955.94
2017-03-31T11:42:49.662Z,956.01
2017-03-31T11:43:39.739Z,955.96
2017-03-31T11:44:49.048Z,955.92
2017-03-31T11:45:44.809Z,955.94
2017-03-31T11:46:51.593Z,955.95
2017-03-31T11:47:45.349Z,955.97
2017-03-31T11:48:49.601Z,955.93
2017-03-31T11:49:45.159Z,955.88
2017-03-31T11:50:53.417Z,955.87
2017-03-31T11:51:39.728Z,955.86
2017-03-31T11:52:50.132Z,955.87
2017-03-31T11:53:45.601Z,955.87
2017-03-31T11:54:40.442Z,955.85
2017-03-31T11:55:40.171Z,955.90
2017-03-31T11:56:40.158Z,955.84
2017-03-31T11:57:34.853Z,955.84
2017-03-31T11:58:50.063Z,955.83
2017-03-31T11:59:41.189Z,955.80
2017-03-31T12:00:42.635Z,955.72
2017-03-31T12:01:49.162Z,955.75
2017-03-31T12:02:39.806Z,955.77
2017-03-31T12:03:46.199Z,955.78
2017-03-31T12:04:42.798Z,955.75
2017-03-31T12:05:49.989Z,955.70
2017-03-31T12:06:37.886Z,955.66
2017-03-31T12:07:49.392Z,955.67
2017-03-31T12:08:48.707Z,955.67
2017-03-31T12:09:49.309Z,955.66
2017-03-31T12:10:37.789Z,955.62
2017-03-31T12:11:47.391Z,955.62
2017-03-31T12:12:39.813Z,955.65
2017-03-31T12:13:44.236Z,955.64
2017-03-31T12:14:33.285Z,955.65
2017-03-31T12:15:52.473Z,955.70
2017-03-31T12:16:43.868Z,955.62
2017-03-31T12:17:42.268Z,955.62
2017-03-31T12:18:46.004Z,955.62
2017-03-31T12:19:54.032Z,955.60
2017-03-31T12:20:41.060Z,955.62
2017-03-31T12:21:53.288Z,955.52
2017-03-31T12:22:39.570Z,955.53
2017-03-31T12:23:37.786Z,955.55
2017-03-31T12:24:43.726Z,955.55
2017-03-31T12:25:45.399Z,955.50
2017-03-31T12:26:45.318Z,955.45
2017-03-31T12:27:45.612Z,955.51
2017-03-31T12:28:56.152Z,955.46
2017-03-31T12:29:45.602Z,955.43